Time;durP1;ratioP1;P1;durP2;ratioP2;P2;SDS_P1;SDS_P2;PMS_P1;PMS_P2;Temp;Humidity;BMP_temperature;BMP_pressure;BME280_temperature;BME280_humidity;BME280_pressure;Samples;Min_cycle;Max_cycle;Signal;HPM_P1;HPM_P2
2024/02/28 00:01:52;;;;;;;27.47;19.73;;;;;;;9.38;65.78;96049.31;4986648;28;20483;-70
2024/02/28 00:04:19;;;;;;;31.97;20.43;;;;;;;9.30;65.94;96051.41;4986142;28;20469;-70
2024/02/28 00:06:46;;;;;;;26.30;18.30;;;;;;;9.31;65.68;96050.50;4986547;28;20857;-70
2024/02/28 00:09:13;;;;;;;25.53;19.53;;;;;;;9.29;66.42;96052.34;4985623;28;20901;-70
2024/02/28 00:11:46;;;;;;;25.33;19.47;;;;;;;9.24;65.74;96051.72;4986434;28;20451;-70
2024/02/28 00:14:12;;;;;;;25.90;20.03;;;;;;;9.17;66.35;96053.75;4979672;28;20413;-69
2024/02/28 00:16:41;;;;;;;27.40;19.60;;;;;;;9.08;67.13;96054.97;4969041;28;20438;-70
2024/02/28 00:19:07;;;;;;;27.60;20.80;;;;;;;9.02;66.81;96055.25;4980818;28;20420;-70
2024/02/28 00:21:32;;;;;;;26.23;19.30;;;;;;;9.02;66.77;96052.63;4986097;28;20534;-71
2024/02/28 00:23:58;;;;;;;23.73;19.83;;;;;;;8.94;67.36;96061.75;4986526;28;20271;-70
2024/02/28 00:26:23;;;;;;;24.47;18.93;;;;;;;8.55;68.21;96060.75;4987059;28;20211;-70
2024/02/28 00:28:48;;;;;;;26.23;19.53;;;;;;;8.59;69.18;96064.91;4986729;28;20272;-71
2024/02/28 00:31:14;;;;;;;27.77;20.53;;;;;;;8.75;67.75;96062.50;4986259;28;20204;-70
2024/02/28 00:33:39;;;;;;;26.63;19.47;;;;;;;8.95;67.36;96061.66;4986495;28;20268;-70
2024/02/28 00:36:05;;;;;;;27.20;19.80;;;;;;;8.78;67.53;96064.16;4986303;28;20187;-69
2024/02/28 00:38:30;;;;;;;28.00;20.60;;;;;;;8.63;68.43;96060.41;4986867;28;20605;-69
2024/02/28 00:40:56;;;;;;;25.57;19.90;;;;;;;8.86;67.11;96062.06;4985963;28;20200;-70
2024/02/28 00:43:21;;;;;;;25.80;20.80;;;;;;;9.07;67.12;96057.66;4987026;28;20257;-70
2024/02/28 00:45:46;;;;;;;32.87;20.53;;;;;;;9.01;67.29;96061.41;4986952;28;20204;-70
2024/02/28 00:48:12;;;;;;;23.13;18.33;;;;;;;9.07;66.72;96063.75;4988211;28;20603;-70
2024/02/28 00:50:37;;;;;;;32.87;19.77;;;;;;;9.02;66.70;96070.94;4988215;28;20208;-70
2024/02/28 00:53:03;;;;;;;30.97;20.57;;;;;;;8.93;67.41;96076.59;4987543;28;20972;-70
2024/02/28 00:55:28;;;;;;;27.60;18.47;;;;;;;8.93;67.71;96068.75;4991345;28;20177;-70
2024/02/28 00:57:53;;;;;;;28.23;20.83;;;;;;;8.92;66.86;96081.88;5000222;28;20512;-69
2024/02/28 01:00:19;;;;;;;27.60;19.67;;;;;;;8.79;67.39;96071.09;5000744;28;20184;-70
2024/02/28 01:02:45;;;;;;;29.57;21.17;;;;;;;8.85;67.21;96070.81;4997735;28;20209;-70
2024/02/28 01:05:10;;;;;;;26.43;19.07;;;;;;;8.66;67.56;96076.81;4989561;28;20200;-70
2024/02/28 01:07:35;;;;;;;28.03;19.53;;;;;;;8.69;68.17;96078.44;4986099;28;20896;-70
2024/02/28 01:10:02;;;;;;;31.50;21.10;;;;;;;8.47;68.15;96081.94;4986095;28;20596;-69
2024/02/28 01:12:27;;;;;;;26.97;19.50;;;;;;;8.58;68.29;96084.16;4985728;28;20201;-70
2024/02/28 01:14:53;;;;;;;27.90;20.00;;;;;;;8.63;67.75;96094.41;4985887;28;21020;-70
2024/02/28 01:17:18;;;;;;;30.63;20.83;;;;;;;8.74;68.00;96091.34;4985865;28;20196;-71
2024/02/28 01:19:44;;;;;;;27.67;20.57;;;;;;;8.64;67.75;96083.88;4985917;28;20187;-70
2024/02/28 01:22:09;;;;;;;26.67;20.43;;;;;;;8.52;68.77;96088.78;4985596;28;20204;-70
2024/02/28 01:24:35;;;;;;;28.83;20.87;;;;;;;8.60;68.57;96099.78;4985856;28;20196;-70
2024/02/28 01:27:00;;;;;;;32.33;21.30;;;;;;;8.63;68.19;96097.03;4985881;28;20205;-70
2024/02/28 01:29:26;;;;;;;35.90;22.13;;;;;;;8.59;68.35;96098.91;4985665;28;20181;-70
2024/02/28 01:31:51;;;;;;;34.67;22.00;;;;;;;8.62;67.80;96098.81;4985294;28;20201;-70
2024/02/28 01:34:17;;;;;;;32.77;20.83;;;;;;;8.67;67.66;96104.69;4985628;28;20529;-70
2024/02/28 01:36:42;;;;;;;27.97;20.03;;;;;;;8.63;67.97;96110.97;4985605;28;20283;-70
2024/02/28 01:39:08;;;;;;;26.90;19.53;;;;;;;8.57;67.49;96110.34;4985995;28;20247;-70
2024/02/28 01:41:33;;;;;;;29.33;21.00;;;;;;;8.60;68.42;96118.09;4985522;28;20212;-69
2024/02/28 01:43:59;;;;;;;28.60;21.60;;;;;;;8.65;67.59;96123.97;4985422;28;20219;-69
2024/02/28 01:46:29;;;;;;;27.57;19.70;;;;;;;8.68;68.07;96122.06;4985340;28;20201;-69
2024/02/28 01:48:56;;;;;;;28.27;20.53;;;;;;;8.62;67.47;96116.25;4991150;28;20416;-69
2024/02/28 01:51:24;;;;;;;31.40;20.73;;;;;;;8.75;67.20;96124.47;4985533;28;20527;-70
2024/02/28 01:53:52;;;;;;;25.20;19.67;;;;;;;8.47;68.72;96128.19;4967774;28;20919;-69
2024/02/28 01:56:19;;;;;;;27.50;20.57;;;;;;;8.18;69.97;96137.16;4985483;28;20440;-70
2024/02/28 01:58:47;;;;;;;29.07;19.73;;;;;;;7.82;71.12;96135.03;4985420;28;20419;-70
2024/02/28 02:01:16;;;;;;;29.73;21.43;;;;;;;7.62;72.31;96136.59;4985120;28;20448;-70
2024/02/28 02:03:43;;;;;;;32.33;20.10;;;;;;;8.09;69.83;96130.50;4985278;28;20427;-70
2024/02/28 02:06:08;;;;;;;28.30;21.03;;;;;;;7.94;71.07;96145.00;4985312;28;20533;-70
2024/02/28 02:08:34;;;;;;;30.93;20.10;;;;;;;8.02;70.46;96144.72;4985823;28;20503;-70
2024/02/28 02:11:00;;;;;;;30.60;20.90;;;;;;;8.02;69.54;96148.16;4985664;28;20201;-70
2024/02/28 02:13:25;;;;;;;30.33;23.90;;;;;;;8.35;69.32;96154.78;4987268;28;20536;-70
2024/02/28 02:15:51;;;;;;;30.50;20.30;;;;;;;8.43;68.36;96151.00;4986655;28;20189;-70
2024/02/28 02:18:16;;;;;;;32.03;23.43;;;;;;;8.27;69.30;96158.56;4988847;28;20216;-69
2024/02/28 02:20:44;;;;;;;33.60;21.70;;;;;;;8.41;68.32;96147.59;4989849;28;20180;-70
2024/02/28 02:23:10;;;;;;;29.30;21.17;;;;;;;8.32;69.07;96149.69;4989371;28;20188;-70
2024/02/28 02:25:46;;;;;;;31.90;20.93;;;;;;;8.46;68.47;96147.41;4989060;28;20456;-70
2024/02/28 02:28:12;;;;;;;34.17;21.80;;;;;;;8.47;67.94;96141.25;4989270;28;20185;-70
2024/02/28 02:30:39;;;;;;;36.13;22.93;;;;;;;8.53;67.78;96142.75;4988640;28;20799;-69
2024/02/28 02:33:05;;;;;;;28.07;20.60;;;;;;;8.56;68.12;96146.13;4988962;28;20192;-69
2024/02/28 02:35:30;;;;;;;33.03;20.90;;;;;;;8.58;67.95;96148.69;4988565;28;20416;-69
2024/02/28 02:37:56;;;;;;;31.80;22.97;;;;;;;8.09;69.32;96159.25;4988519;28;20938;-69
2024/02/28 02:40:21;;;;;;;31.17;22.30;;;;;;;8.41;69.00;96151.94;4988454;28;20196;-70
2024/02/28 02:42:47;;;;;;;34.43;22.20;;;;;;;8.57;67.77;96150.44;4988048;28;20204;-70
2024/02/28 02:45:12;;;;;;;35.80;20.60;;;;;;;8.58;67.16;96153.91;4988450;28;20224;-71
2024/02/28 02:47:37;;;;;;;32.37;20.83;;;;;;;8.44;67.75;96147.47;4988323;28;20192;-70
2024/02/28 02:50:03;;;;;;;29.43;20.57;;;;;;;8.52;67.76;96160.22;4988566;28;20227;-70
2024/02/28 02:52:29;;;;;;;32.03;20.30;;;;;;;8.40;68.32;96156.34;4988253;28;20204;-73
2024/02/28 02:54:54;;;;;;;31.50;22.87;;;;;;;8.46;67.89;96157.88;4988167;28;20192;-70
2024/02/28 02:57:20;;;;;;;30.13;20.17;;;;;;;8.45;68.22;96156.16;4988094;28;20679;-70
2024/02/28 02:59:45;;;;;;;31.90;20.17;;;;;;;8.31;68.83;96169.72;4988224;28;20234;-70
2024/02/28 03:02:11;;;;;;;37.00;23.97;;;;;;;8.42;68.33;96164.97;4987829;28;20486;-70
2024/02/28 03:04:36;;;;;;;30.27;21.70;;;;;;;8.16;69.52;96171.16;4987863;28;21005;-70
2024/02/28 03:07:02;;;;;;;33.60;22.37;;;;;;;8.38;68.83;96165.97;4988064;28;20663;-69
2024/02/28 03:09:27;;;;;;;32.00;22.07;;;;;;;8.40;68.74;96169.41;4988962;28;20778;-69
2024/02/28 03:11:52;;;;;;;33.37;20.57;;;;;;;8.51;68.50;96173.38;4988577;28;20282;-69
2024/02/28 03:14:18;;;;;;;43.80;23.80;;;;;;;8.52;68.61;96172.47;4988804;28;20810;-70
2024/02/28 03:16:44;;;;;;;36.17;21.03;;;;;;;8.54;67.53;96176.72;4990301;28;20212;-70
2024/02/28 03:19:10;;;;;;;30.03;19.50;;;;;;;8.41;68.25;96172.88;4990681;28;20579;-70
2024/02/28 03:21:36;;;;;;;31.97;21.60;;;;;;;8.43;68.08;96178.88;4991481;28;20196;-70
2024/02/28 03:24:02;;;;;;;29.70;20.80;;;;;;;8.32;68.56;96187.13;4992437;28;20412;-70
2024/02/28 03:26:27;;;;;;;31.83;21.43;;;;;;;8.15;68.69;96187.78;4993892;28;20215;-73
2024/02/28 03:28:53;;;;;;;34.57;22.70;;;;;;;8.19;69.37;96181.50;4992988;28;20551;-69
2024/02/28 03:31:18;;;;;;;30.20;21.13;;;;;;;8.07;68.79;96184.59;4992368;28;20208;-69
2024/02/28 03:33:44;;;;;;;34.17;21.20;;;;;;;7.91;69.16;96194.75;4991437;28;20176;-69
2024/02/28 03:36:09;;;;;;;39.77;23.93;;;;;;;8.02;69.99;96194.38;4989414;28;20188;-69
2024/02/28 03:38:34;;;;;;;30.73;19.20;;;;;;;7.99;69.98;96191.88;4988713;28;20173;-68
2024/02/28 03:41:02;;;;;;;35.47;21.87;;;;;;;8.01;69.67;96197.91;4988466;28;20207;-69
2024/02/28 03:43:27;;;;;;;33.70;22.87;;;;;;;8.22;69.29;96191.88;4988471;28;20176;-70
2024/02/28 03:45:53;;;;;;;32.20;23.33;;;;;;;8.05;69.55;96195.13;4988527;28;21426;-69
2024/02/28 03:48:18;;;;;;;35.10;22.03;;;;;;;8.16;68.88;96192.09;4988558;28;20188;-69
2024/02/28 03:50:43;;;;;;;34.53;21.80;;;;;;;8.30;68.33;96201.19;4987929;28;20172;-69
2024/02/28 03:53:09;;;;;;;35.37;23.20;;;;;;;8.42;68.14;96198.13;4987479;28;20545;-71
2024/02/28 03:55:34;;;;;;;42.40;24.13;;;;;;;8.40;67.92;96199.94;4987556;28;20300;-70
2024/02/28 03:58:00;;;;;;;37.77;22.70;;;;;;;8.27;69.33;96202.16;4986395;28;20191;-69
2024/02/28 04:00:26;;;;;;;32.63;20.27;;;;;;;8.18;69.51;96197.25;4987889;28;20598;-69
2024/02/28 04:02:51;;;;;;;37.20;22.43;;;;;;;8.17;68.82;96204.25;4987888;28;20687;-70
2024/02/28 04:05:17;;;;;;;36.37;23.93;;;;;;;8.23;69.29;96205.78;4987821;28;20227;-70
2024/02/28 04:07:42;;;;;;;31.33;21.93;;;;;;;8.23;68.94;96211.84;4987397;28;20223;-70
2024/02/28 04:10:10;;;;;;;34.50;22.23;;;;;;;8.20;68.53;96204.13;4987486;28;20420;-70
2024/02/28 04:12:36;;;;;;;32.50;23.17;;;;;;;8.17;68.81;96203.38;4985815;28;20232;-70
2024/02/28 04:15:02;;;;;;;32.83;22.67;;;;;;;8.24;68.37;96200.50;4987151;28;20538;-70
2024/02/28 04:17:28;;;;;;;37.63;23.70;;;;;;;8.18;68.10;96215.56;4986529;28;20181;-70
2024/02/28 04:19:53;;;;;;;33.27;21.83;;;;;;;7.94;69.49;96212.09;4987445;28;20985;-70
2024/02/28 04:22:19;;;;;;;39.57;23.30;;;;;;;8.13;68.72;96202.66;4987976;28;20204;-69
2024/02/28 04:24:44;;;;;;;36.00;22.10;;;;;;;8.22;69.10;96207.56;4987174;28;20181;-69
2024/02/28 04:27:11;;;;;;;35.03;23.30;;;;;;;8.18;69.13;96207.72;4987393;28;20215;-69
2024/02/28 04:29:37;;;;;;;31.90;23.60;;;;;;;8.30;68.51;96209.03;4989123;28;20697;-69
2024/02/28 04:32:02;;;;;;;32.97;22.97;;;;;;;8.28;68.61;96212.53;4987417;28;20436;-70
2024/02/28 04:34:27;;;;;;;34.37;21.20;;;;;;;8.38;67.05;96213.03;4987833;28;20215;-70
2024/02/28 04:36:53;;;;;;;35.00;22.13;;;;;;;8.45;66.62;96217.13;4991521;28;20185;-69
2024/02/28 04:39:18;;;;;;;37.20;24.47;;;;;;;8.46;67.29;96225.84;4987748;28;20310;-69
2024/02/28 04:41:44;;;;;;;35.23;22.20;;;;;;;8.55;66.80;96227.25;4987025;28;20212;-70
2024/02/28 04:44:09;;;;;;;41.17;24.23;;;;;;;8.64;66.03;96222.50;4987875;28;20172;-70
2024/02/28 04:46:37;;;;;;;33.00;21.83;;;;;;;8.30;66.56;96228.16;4988946;28;20205;-70
2024/02/28 04:49:02;;;;;;;33.50;21.80;;;;;;;8.43;66.70;96242.53;4993380;28;20270;-70
2024/02/28 04:51:27;;;;;;;32.37;21.37;;;;;;;8.28;66.74;96241.28;4995986;28;20435;-70
2024/02/28 04:53:53;;;;;;;36.20;22.10;;;;;;;8.23;67.74;96242.38;5004617;28;20255;-70
2024/02/28 04:56:18;;;;;;;35.20;20.93;;;;;;;8.15;67.19;96247.91;5007760;28;20169;-70
2024/02/28 04:58:44;;;;;;;33.17;21.33;;;;;;;8.27;67.32;96255.28;5008460;28;20176;-71
2024/02/28 05:01:09;;;;;;;30.07;20.50;;;;;;;8.29;67.54;96257.81;5007133;28;20227;-71
2024/02/28 05:03:34;;;;;;;32.27;20.57;;;;;;;8.27;67.52;96257.91;4993184;28;20323;-70
2024/02/28 05:06:00;;;;;;;29.83;21.40;;;;;;;8.39;66.63;96260.97;4987279;28;20201;-70
2024/02/28 05:08:27;;;;;;;32.13;20.20;;;;;;;8.25;67.59;96264.94;4987066;28;20176;-70
2024/02/28 05:10:52;;;;;;;30.30;21.20;;;;;;;8.30;66.78;96267.38;4986778;28;20623;-70
2024/02/28 05:13:18;;;;;;;33.47;21.57;;;;;;;8.39;67.09;96271.44;4986757;28;20535;-70
2024/02/28 05:15:44;;;;;;;30.87;20.70;;;;;;;8.33;66.62;96263.81;4986922;28;20652;-70
2024/02/28 05:18:09;;;;;;;33.37;21.00;;;;;;;8.05;68.04;96262.19;4969239;28;20863;-70
2024/02/28 05:20:34;;;;;;;29.60;19.47;;;;;;;7.96;68.36;96262.50;4986887;28;20208;-70
2024/02/28 05:23:00;;;;;;;35.90;23.43;;;;;;;7.98;68.20;96265.94;4986221;28;20184;-70
2024/02/28 05:25:25;;;;;;;34.53;20.37;;;;;;;7.88;67.82;96273.25;4986425;28;20204;-70
2024/02/28 05:27:51;;;;;;;29.10;19.77;;;;;;;7.96;68.04;96272.97;4987055;28;20185;-70
2024/02/28 05:30:16;;;;;;;37.87;21.33;;;;;;;8.06;67.34;96283.06;4987198;28;20187;-70
2024/02/28 05:32:41;;;;;;;34.87;21.60;;;;;;;8.16;66.40;96290.56;4987206;28;20288;-70
2024/02/28 05:35:07;;;;;;;33.80;19.93;;;;;;;8.05;66.45;96283.97;4987214;28;20185;-69
2024/02/28 05:37:32;;;;;;;37.27;21.10;;;;;;;8.00;66.90;96291.09;4986881;28;20842;-71
2024/02/28 05:39:58;;;;;;;31.87;19.57;;;;;;;8.06;66.44;96300.50;4985539;28;20192;-70
2024/02/28 05:42:24;;;;;;;28.33;19.67;;;;;;;8.08;65.64;96306.53;4969014;28;20204;-70
2024/02/28 05:44:50;;;;;;;28.03;19.30;;;;;;;8.31;65.48;96307.44;4987093;28;20235;-70
2024/02/28 05:47:15;;;;;;;34.80;19.97;;;;;;;8.23;65.59;96298.13;4985367;28;20215;-69
2024/02/28 05:49:40;;;;;;;31.27;19.90;;;;;;;8.20;64.85;96310.47;4987430;28;20420;-69
2024/02/28 05:52:06;;;;;;;29.67;19.33;;;;;;;7.99;66.18;96315.53;4973577;28;20300;-71
2024/02/28 05:54:33;;;;;;;32.40;19.47;;;;;;;7.92;66.58;96321.03;4989894;28;20188;-71
2024/02/28 05:56:59;;;;;;;30.57;18.13;;;;;;;8.00;65.68;96329.44;4992004;28;20188;-70
2024/02/28 05:59:25;;;;;;;33.20;19.33;;;;;;;8.19;65.02;96332.25;4990744;28;20420;-70
2024/02/28 06:01:50;;;;;;;27.30;18.53;;;;;;;8.03;65.26;96339.78;4990630;28;20206;-70
2024/02/28 06:04:16;;;;;;;31.40;20.40;;;;;;;8.07;65.95;96350.06;4991970;28;20193;-70
2024/02/28 06:06:42;;;;;;;32.53;21.10;;;;;;;8.11;65.49;96352.59;4992173;28;20209;-71
2024/02/28 06:09:07;;;;;;;32.50;20.63;;;;;;;7.94;65.51;96358.41;4990682;28;20177;-70
2024/02/28 06:11:33;;;;;;;28.20;20.27;;;;;;;7.61;67.82;96356.88;4990352;28;20216;-68
2024/02/28 06:13:58;;;;;;;34.07;21.33;;;;;;;7.92;66.09;96361.06;4990838;28;20193;-70
2024/02/28 06:16:24;;;;;;;30.47;19.77;;;;;;;7.94;66.27;96368.88;4990988;28;20439;-70
2024/02/28 06:18:49;;;;;;;31.03;21.13;;;;;;;7.31;68.30;96366.53;4992230;28;20215;-71
2024/02/28 06:21:15;;;;;;;31.07;19.77;;;;;;;7.45;67.69;96375.72;4991231;28;20211;-69
2024/02/28 06:23:41;;;;;;;31.40;20.30;;;;;;;7.29;68.68;96380.53;4999425;28;20215;-70
2024/02/28 06:26:06;;;;;;;32.00;19.77;;;;;;;7.27;69.24;96384.94;4989041;28;20274;-70
2024/02/28 06:28:32;;;;;;;27.83;18.60;;;;;;;7.42;68.86;96387.09;4986846;28;20192;-70
2024/02/28 06:30:57;;;;;;;30.57;19.20;;;;;;;7.14;69.49;96389.72;4991374;28;20507;-70
2024/02/28 06:33:23;;;;;;;30.17;20.60;;;;;;;7.09;69.54;96389.00;4994404;28;20477;-70
2024/02/28 06:35:48;;;;;;;34.50;20.57;;;;;;;7.39;68.38;96387.19;4992685;28;20193;-71
2024/02/28 06:38:14;;;;;;;32.00;20.00;;;;;;;7.66;68.26;96388.06;4987574;28;20494;-71
2024/02/28 06:40:40;;;;;;;30.60;19.83;;;;;;;7.70;67.52;96384.47;4979291;28;20182;-71
2024/02/28 06:43:06;;;;;;;33.43;22.80;;;;;;;7.46;68.27;96390.44;4983838;28;20184;-71
2024/02/28 06:45:31;;;;;;;33.57;20.77;;;;;;;7.80;67.36;96385.84;4991301;28;20444;-69
2024/02/28 06:47:57;;;;;;;35.10;22.17;;;;;;;7.95;67.08;96388.84;4988705;28;20184;-70
2024/02/28 06:50:23;;;;;;;33.50;22.30;;;;;;;7.41;68.40;96394.06;4988406;28;20256;-69
2024/02/28 06:52:48;;;;;;;28.83;18.97;;;;;;;7.42;69.40;96398.38;4988793;28;20447;-68
2024/02/28 06:55:14;;;;;;;27.50;19.50;;;;;;;7.68;68.21;96404.53;4990838;28;20176;-71
2024/02/28 06:57:42;;;;;;;29.83;21.13;;;;;;;7.42;68.42;96397.53;4999486;28;20177;-70
2024/02/28 07:00:14;;;;;;;33.90;20.80;;;;;;;7.29;69.65;96396.22;5002750;28;20256;-70
2024/02/28 07:02:40;;;;;;;30.33;20.83;;;;;;;7.51;69.23;96399.00;4985447;28;20444;-70
2024/02/28 07:05:06;;;;;;;29.40;22.20;;;;;;;7.25;70.17;96395.44;4993006;28;20420;-70
2024/02/28 07:07:32;;;;;;;34.90;21.00;;;;;;;7.48;69.61;96404.31;4987649;28;20182;-70
2024/02/28 07:09:58;;;;;;;42.40;22.17;;;;;;;7.24;70.16;96417.22;4988853;28;20870;-70
2024/02/28 07:12:24;;;;;;;32.77;21.17;;;;;;;6.72;72.18;96432.66;4991048;28;20869;-70
2024/02/28 07:14:50;;;;;;;30.67;21.07;;;;;;;6.64;73.05;96429.41;4989332;28;20192;-70
2024/02/28 07:17:15;;;;;;;35.33;19.97;;;;;;;7.27;70.83;96432.78;4987336;28;20424;-71
2024/02/28 07:19:41;;;;;;;36.63;22.40;;;;;;;7.08;70.69;96426.41;4998581;28;20723;-69
2024/02/28 07:22:06;;;;;;;60.50;23.10;;;;;;;7.04;71.18;96436.09;4986029;28;20201;-71
2024/02/28 07:24:32;;;;;;;36.10;20.73;;;;;;;7.05;71.42;96429.13;4986760;28;20833;-71
2024/02/28 07:26:57;;;;;;;34.70;21.37;;;;;;;6.53;73.04;96434.91;4990080;28;20200;-70
2024/02/28 07:29:23;;;;;;;34.30;22.17;;;;;;;6.70;72.44;96434.44;4981345;28;20177;-70
2024/02/28 07:31:49;;;;;;;36.23;20.73;;;;;;;6.82;72.21;96437.63;4986363;28;20209;-70
2024/02/28 07:34:15;;;;;;;34.47;20.50;;;;;;;6.87;72.33;96439.19;4986027;28;20220;-71
2024/02/28 07:36:40;;;;;;;55.17;24.10;;;;;;;7.47;70.52;96436.56;4980334;28;20448;-69
2024/02/28 07:39:06;;;;;;;42.27;22.97;;;;;;;7.75;68.78;96440.00;4986163;28;20902;-71
2024/02/28 07:41:32;;;;;;;36.63;21.53;;;;;;;7.45;69.82;96439.22;4987321;28;20192;-70
2024/02/28 07:43:57;;;;;;;34.87;20.50;;;;;;;7.36;69.64;96440.34;4984851;28;20243;-71
2024/02/28 07:46:23;;;;;;;31.43;20.00;;;;;;;7.40;68.68;96441.13;4985567;28;20204;-71
2024/02/28 07:48:48;;;;;;;31.93;19.93;;;;;;;7.49;69.00;96443.44;4993206;28;20287;-71
2024/02/28 07:51:15;;;;;;;31.30;20.20;;;;;;;7.46;68.33;96440.91;4974660;28;20200;-70
2024/02/28 07:53:40;;;;;;;30.47;19.90;;;;;;;7.83;67.94;96450.22;4969512;28;20180;-70
2024/02/28 07:56:06;;;;;;;34.17;19.83;;;;;;;8.00;66.67;96455.72;4990833;28;20416;-70
2024/02/28 07:58:31;;;;;;;34.60;20.57;;;;;;;8.00;67.10;96452.28;4996651;28;20390;-70
2024/02/28 08:00:57;;;;;;;32.40;19.37;;;;;;;7.61;67.63;96450.91;4986779;28;20196;-70
2024/02/28 08:03:22;;;;;;;40.50;21.60;;;;;;;7.67;68.55;96457.66;4987315;28;20181;-69
2024/02/28 08:05:48;;;;;;;27.53;17.77;;;;;;;7.42;68.98;96453.22;4987466;28;21018;-71
2024/02/28 08:08:14;;;;;;;34.53;20.80;;;;;;;7.49;68.45;96456.50;4986845;28;20264;-71
2024/02/28 08:10:39;;;;;;;35.43;19.60;;;;;;;7.67;67.67;96451.59;4987237;28;20283;-71
2024/02/28 08:13:05;;;;;;;33.47;20.73;;;;;;;7.73;67.42;96454.88;4987268;28;20181;-71
2024/02/28 08:15:31;;;;;;;39.10;20.87;;;;;;;7.84;67.39;96458.00;4987142;28;20188;-70
2024/02/28 08:17:58;;;;;;;29.43;19.40;;;;;;;7.41;68.78;96459.31;4987531;28;20189;-71
2024/02/28 08:20:23;;;;;;;32.37;20.77;;;;;;;7.74;67.54;96461.78;4988510;28;20412;-70
2024/02/28 08:22:50;;;;;;;30.80;20.43;;;;;;;7.83;67.76;96458.88;4987957;28;20428;-70
2024/02/28 08:25:16;;;;;;;30.07;19.00;;;;;;;7.84;67.65;96467.56;4970214;28;20212;-70
2024/02/28 08:27:41;;;;;;;31.90;20.13;;;;;;;7.65;68.46;96462.09;4987502;28;20424;-70
2024/02/28 08:30:07;;;;;;;38.10;21.40;;;;;;;7.40;69.38;96468.06;4987216;28;20436;-70
2024/02/28 08:32:33;;;;;;;34.13;19.50;;;;;;;7.50;69.06;96466.03;4986414;28;20201;-71
2024/02/28 08:34:58;;;;;;;36.90;19.93;;;;;;;7.75;68.03;96468.75;4986645;28;20251;-70
2024/02/28 08:37:24;;;;;;;33.80;20.10;;;;;;;7.78;68.24;96470.41;4980635;28;20452;-71
2024/02/28 08:39:50;;;;;;;32.57;20.87;;;;;;;7.50;69.66;96470.41;4987439;28;20184;-70
2024/02/28 08:42:15;;;;;;;39.23;21.10;;;;;;;7.88;67.89;96476.19;4987330;28;20455;-71
2024/02/28 08:44:41;;;;;;;32.30;19.40;;;;;;;7.81;68.40;96478.13;4988842;28;20176;-71
2024/02/28 08:47:09;;;;;;;28.83;19.00;;;;;;;8.01;67.91;96472.28;4987278;28;20574;-70
2024/02/28 08:49:35;;;;;;;31.70;19.83;;;;;;;8.20;66.40;96476.00;4987323;28;20184;-70
2024/02/28 08:52:00;;;;;;;36.00;21.37;;;;;;;8.12;67.35;96483.22;4985999;28;20451;-70
2024/02/28 08:54:26;;;;;;;35.07;19.90;;;;;;;8.17;67.47;96476.09;4986636;28;20925;-69
2024/02/28 08:56:51;;;;;;;36.40;20.90;;;;;;;8.28;66.95;96475.72;4986746;28;20177;-71
2024/02/28 08:59:17;;;;;;;37.57;19.77;;;;;;;8.25;67.00;96484.53;4968740;28;20523;-71
2024/02/28 09:01:42;;;;;;;35.00;20.63;;;;;;;7.80;68.64;96487.75;4979708;28;20208;-70
2024/02/28 09:04:07;;;;;;;57.73;23.00;;;;;;;7.96;68.16;96488.13;4984771;28;20177;-70
2024/02/28 09:06:33;;;;;;;33.80;19.73;;;;;;;7.89;67.76;96484.00;4985700;28;20665;-70
2024/02/28 09:08:58;;;;;;;35.37;20.57;;;;;;;8.02;67.53;96484.44;4985803;28;20745;-71
2024/02/28 09:11:24;;;;;;;32.50;20.03;;;;;;;7.65;69.04;96485.59;4967709;28;20200;-71
2024/02/28 09:13:50;;;;;;;33.93;21.47;;;;;;;7.52;69.86;96484.28;4986755;28;20710;-71
2024/02/28 09:16:16;;;;;;;33.60;21.10;;;;;;;7.71;69.60;96489.78;4986601;28;20412;-71
2024/02/28 09:18:42;;;;;;;33.27;20.77;;;;;;;7.70;69.30;96491.56;4986651;28;20180;-71
2024/02/28 09:21:08;;;;;;;39.87;21.20;;;;;;;7.79;68.81;96483.41;4982101;28;20270;-69
2024/02/28 09:23:33;;;;;;;35.30;21.43;;;;;;;7.75;68.78;96484.41;4986409;28;20751;-73
2024/02/28 09:26:03;;;;;;;39.00;20.23;;;;;;;7.70;69.07;96486.31;4979094;28;20464;-70
2024/02/28 09:28:28;;;;;;;39.27;23.17;;;;;;;7.89;68.99;96494.44;4972779;28;20273;-70
2024/02/28 09:30:54;;;;;;;30.80;19.50;;;;;;;7.93;67.91;96488.19;4988791;28;20564;-71
2024/02/28 09:33:19;;;;;;;34.83;21.40;;;;;;;7.75;69.04;96489.66;4994651;28;20176;-71
2024/02/28 09:35:45;;;;;;;37.10;21.27;;;;;;;7.53;69.03;96488.59;4993739;28;20185;-70
2024/02/28 09:38:11;;;;;;;31.20;19.43;;;;;;;7.67;69.63;96496.84;4992944;28;20187;-71
2024/02/28 09:40:36;;;;;;;33.47;20.63;;;;;;;7.59;69.01;96496.25;4992383;28;20252;-70
2024/02/28 09:43:03;;;;;;;37.80;22.10;;;;;;;7.80;69.10;96502.56;4995075;28;20181;-70
2024/02/28 09:45:30;;;;;;;38.27;20.27;;;;;;;7.72;68.50;96508.00;4995610;28;20271;-69
2024/02/28 09:48:00;;;;;;;36.70;21.87;;;;;;;7.89;68.28;96504.91;4995244;28;20407;-70
2024/02/28 09:50:28;;;;;;;95.77;25.80;;;;;;;8.00;67.96;96507.16;4980895;28;20428;-71
2024/02/28 09:52:54;;;;;;;62.03;21.83;;;;;;;7.89;67.50;96498.78;4987782;28;20451;-71
2024/02/28 09:55:20;;;;;;;40.10;20.13;;;;;;;7.49;68.60;96507.84;4990985;28;20435;-71
2024/02/28 09:57:48;;;;;;;33.13;19.60;;;;;;;7.27;69.23;96507.63;4996160;28;20436;-71
2024/02/28 10:00:18;;;;;;;33.57;22.20;;;;;;;7.59;68.80;96498.84;5001992;28;20491;-70
2024/02/28 10:02:47;;;;;;;35.17;21.20;;;;;;;8.08;67.33;96502.53;5002219;28;20451;-71
2024/02/28 10:05:13;;;;;;;31.60;21.17;;;;;;;8.62;65.79;96504.25;5007705;28;20435;-71
2024/02/28 10:07:39;;;;;;;34.97;19.23;;;;;;;8.51;65.12;96505.53;5001322;28;20432;-71
2024/02/28 10:10:07;;;;;;;38.57;19.03;;;;;;;8.46;64.56;96506.53;4989776;28;20497;-71
2024/02/28 10:12:33;;;;;;;34.30;19.80;;;;;;;8.73;64.54;96510.88;4989279;28;20192;-71
2024/02/28 10:15:00;;;;;;;30.67;19.50;;;;;;;8.78;64.72;96514.16;4989217;28;20903;-70
2024/02/28 10:17:25;;;;;;;32.27;19.97;;;;;;;8.42;64.96;96514.53;4989139;28;20173;-70
2024/02/28 10:19:52;;;;;;;32.37;18.20;;;;;;;8.56;64.85;96514.06;4987427;28;20440;-70
2024/02/28 10:22:17;;;;;;;35.13;20.27;;;;;;;8.73;64.15;96516.94;4969756;28;20205;-70
2024/02/28 10:24:43;;;;;;;28.67;17.60;;;;;;;8.84;63.92;96519.19;4988164;28;20446;-70
2024/02/28 10:27:08;;;;;;;30.23;19.50;;;;;;;8.77;64.40;96522.94;4988975;28;20216;-72
2024/02/28 10:29:34;;;;;;;30.10;19.50;;;;;;;8.33;65.66;96533.09;4963593;28;20192;-71
2024/02/28 10:32:00;;;;;;;29.30;20.30;;;;;;;8.38;65.70;96545.09;4988484;28;20599;-69
2024/02/28 10:34:25;;;;;;;33.00;20.13;;;;;;;8.55;65.45;96534.16;4989464;28;20723;-71
2024/02/28 10:36:51;;;;;;;49.20;21.07;;;;;;;8.85;64.04;96544.44;4995687;28;20451;-72
2024/02/28 10:39:17;;;;;;;32.27;19.93;;;;;;;8.92;63.69;96545.94;4990756;28;20215;-71
2024/02/28 10:41:46;;;;;;;32.63;18.17;;;;;;;9.16;62.73;96545.97;4988674;28;20199;-71
2024/02/28 10:44:12;;;;;;;47.53;23.07;;;;;;;9.01;62.98;96548.25;4988898;28;20971;-70
2024/02/28 10:46:38;;;;;;;36.17;18.60;;;;;;;9.06;63.08;96545.47;4988773;28;20467;-71
2024/02/28 10:49:05;;;;;;;36.87;21.87;;;;;;;9.11;62.71;96548.75;4988584;28;20471;-71
2024/02/28 10:51:34;;;;;;;32.33;18.67;;;;;;;9.24;62.05;96547.44;4988603;28;20474;-70
2024/02/28 10:54:11;;;;;;;29.47;18.83;;;;;;;9.16;62.58;96545.97;4988151;28;20432;-71
2024/02/28 10:56:41;;;;;;;30.30;21.20;;;;;;;9.22;62.33;96549.25;4987993;28;20426;-71
2024/02/28 10:59:08;;;;;;;31.20;20.80;;;;;;;8.67;63.76;96538.97;4988221;28;20428;-71
2024/02/28 11:01:38;;;;;;;35.80;18.20;;;;;;;8.79;64.03;96542.06;4988372;28;20468;-70
2024/02/28 11:04:05;;;;;;;31.20;18.77;;;;;;;8.93;63.59;96550.28;4988438;28;20768;-72
2024/02/28 11:06:31;;;;;;;30.63;18.97;;;;;;;8.97;62.95;96545.78;4988137;28;20463;-70
2024/02/28 11:08:59;;;;;;;31.60;20.40;;;;;;;9.19;62.48;96548.47;4988101;28;20424;-70
2024/02/28 11:11:30;;;;;;;37.20;19.20;;;;;;;8.90;63.61;96555.59;4987379;28;20263;-71
2024/02/28 11:13:57;;;;;;;30.87;18.50;;;;;;;8.94;63.44;96551.13;4988550;28;20420;-71
2024/02/28 11:16:33;;;;;;;35.13;20.60;;;;;;;9.12;62.36;96553.13;4984680;28;20438;-71
2024/02/28 11:19:00;;;;;;;30.40;18.63;;;;;;;9.22;62.84;96557.09;4986525;28;20446;-71